Terminal Aerodrome Forecast
Issued by NWS

Home | Current Version | Previous Version | Text Only | Print | Product List | Glossary On
Versions: 1 2 3 4 5 6 7 8 9 10 11 12 13 14
000
FTUS45 KGJT 260132 AAC
TAFMTJ
TAF AMD
KMTJ 260132Z 2602/2624 16012KT P6SM VCSH SCT100 BKN150
     FM260400 15010KT P6SM SCT250
     FM261200 VRB03KT P6SM BKN200
     FM262000 34008KT P6SM VCTS SCT100CB SCT150=

USA.gov is the U.S. government's official web portal to all federal, state and local government web resources and services.